sensor_id;sensor_type;location;lat;lon;timestamp;pressure;altitude;pressure_sealevel;temperature;humidity
19576;BME280;41589;51.196;7.074;2022-08-01T00:00:50;99033.75;;;19.99;100.00
19576;BME280;41589;51.196;7.074;2022-08-01T00:05:51;99028.28;;;20.01;100.00
19576;BME280;41589;51.196;7.074;2022-08-01T00:10:52;99029.81;;;20.08;100.00
19576;BME280;41589;51.196;7.074;2022-08-01T00:15:52;99035.00;;;20.09;100.00
19576;BME280;41589;51.196;7.074;2022-08-01T00:20:53;99035.31;;;19.95;100.00
19576;BME280;41589;51.196;7.074;2022-08-01T00:25:54;99031.38;;;20.03;100.00
19576;BME280;41589;51.196;7.074;2022-08-01T00:30:55;99026.94;;;20.08;100.00
19576;BME280;41589;51.196;7.074;2022-08-01T00:35:56;99028.22;;;20.12;100.00
19576;BME280;41589;51.196;7.074;2022-08-01T00:40:56;99018.44;;;19.97;100.00
19576;BME280;41589;51.196;7.074;2022-08-01T00:45:57;99019.47;;;19.99;100.00
19576;BME280;41589;51.196;7.074;2022-08-01T00:50:58;99021.59;;;19.93;100.00
19576;BME280;41589;51.196;7.074;2022-08-01T00:55:59;99027.06;;;19.91;100.00
19576;BME280;41589;51.196;7.074;2022-08-01T01:01:00;99019.53;;;19.88;100.00
19576;BME280;41589;51.196;7.074;2022-08-01T01:06:11;99022.75;;;19.73;100.00
19576;BME280;41589;51.196;7.074;2022-08-01T01:11:21;99012.63;;;19.72;100.00
19576;BME280;41589;51.196;7.074;2022-08-01T01:16:25;99019.13;;;19.73;100.00
19576;BME280;41589;51.196;7.074;2022-08-01T01:21:39;99017.88;;;19.63;100.00
19576;BME280;41589;51.196;7.074;2022-08-01T01:27:08;99020.97;;;19.65;100.00
19576;BME280;41589;51.196;7.074;2022-08-01T01:32:35;99022.59;;;19.60;100.00
19576;BME280;41589;51.196;7.074;2022-08-01T01:37:39;99025.66;;;19.68;100.00
19576;BME280;41589;51.196;7.074;2022-08-01T01:42:41;99030.31;;;19.71;100.00
19576;BME280;41589;51.196;7.074;2022-08-01T01:47:44;99026.94;;;19.67;100.00
19576;BME280;41589;51.196;7.074;2022-08-01T01:52:46;99030.63;;;19.61;100.00
19576;BME280;41589;51.196;7.074;2022-08-01T01:57:50;99034.22;;;19.68;100.00
19576;BME280;41589;51.196;7.074;2022-08-01T02:02:53;99033.94;;;19.71;100.00
19576;BME280;41589;51.196;7.074;2022-08-01T02:07:57;99030.78;;;19.75;100.00
19576;BME280;41589;51.196;7.074;2022-08-01T02:13:03;99025.13;;;19.69;100.00
19576;BME280;41589;51.196;7.074;2022-08-01T02:18:05;99021.97;;;19.78;100.00
19576;BME280;41589;51.196;7.074;2022-08-01T02:23:11;99031.03;;;19.77;100.00
19576;BME280;41589;51.196;7.074;2022-08-01T02:28:29;99020.66;;;19.74;100.00
19576;BME280;41589;51.196;7.074;2022-08-01T02:34:13;99030.56;;;19.67;100.00
19576;BME280;41589;51.196;7.074;2022-08-01T02:39:14;99020.66;;;19.74;100.00
19576;BME280;41589;51.196;7.074;2022-08-01T02:44:23;99021.50;;;19.69;100.00
19576;BME280;41589;51.196;7.074;2022-08-01T02:49:25;99018.66;;;19.63;100.00
19576;BME280;41589;51.196;7.074;2022-08-01T02:54:29;99018.34;;;19.72;100.00
19576;BME280;41589;51.196;7.074;2022-08-01T02:59:31;99023.00;;;19.75;100.00
19576;BME280;41589;51.196;7.074;2022-08-01T03:04:36;99015.50;;;19.67;100.00
19576;BME280;41589;51.196;7.074;2022-08-01T03:09:43;99013.41;;;19.73;100.00
19576;BME280;41589;51.196;7.074;2022-08-01T03:14:46;99019.16;;;19.67;100.00
19576;BME280;41589;51.196;7.074;2022-08-01T03:19:48;99025.13;;;19.69;100.00
19576;BME280;41589;51.196;7.074;2022-08-01T03:24:52;99024.34;;;19.69;100.00
19576;BME280;41589;51.196;7.074;2022-08-01T03:29:55;99029.53;;;19.70;100.00
19576;BME280;41589;51.196;7.074;2022-08-01T03:34:56;99035.25;;;19.70;100.00
19576;BME280;41589;51.196;7.074;2022-08-01T03:40:00;99032.91;;;19.69;100.00
19576;BME280;41589;51.196;7.074;2022-08-01T03:45:06;99037.31;;;19.70;100.00
19576;BME280;41589;51.196;7.074;2022-08-01T03:50:10;99038.66;;;19.63;100.00
19576;BME280;41589;51.196;7.074;2022-08-01T03:55:12;99030.78;;;19.75;100.00
19576;BME280;41589;51.196;7.074;2022-08-01T04:00:14;99029.47;;;19.76;100.00
19576;BME280;41589;51.196;7.074;2022-08-01T04:05:18;99034.16;;;19.79;100.00
19576;BME280;41589;51.196;7.074;2022-08-01T04:10:18;99025.06;;;19.80;100.00
19576;BME280;41589;51.196;7.074;2022-08-01T04:15:19;99026.59;;;19.81;100.00
19576;BME280;41589;51.196;7.074;2022-08-01T04:20:20;99025.81;;;19.81;100.00
19576;BME280;41589;51.196;7.074;2022-08-01T04:25:25;99032.78;;;19.85;100.00
19576;BME280;41589;51.196;7.074;2022-08-01T04:30:29;99038.56;;;19.80;100.00
19576;BME280;41589;51.196;7.074;2022-08-01T04:35:31;99052.09;;;19.74;100.00
19576;BME280;41589;51.196;7.074;2022-08-01T04:40:39;99038.78;;;19.82;100.00
19576;BME280;41589;51.196;7.074;2022-08-01T04:46:17;99055.19;;;19.76;100.00
19576;BME280;41589;51.196;7.074;2022-08-01T04:52:05;99065.28;;;19.82;100.00
19576;BME280;41589;51.196;7.074;2022-08-01T04:57:48;99068.69;;;19.75;100.00
19576;BME280;41589;51.196;7.074;2022-08-01T05:03:45;99068.41;;;19.79;100.00
19576;BME280;41589;51.196;7.074;2022-08-01T05:09:41;99068.94;;;19.77;100.00
19576;BME280;41589;51.196;7.074;2022-08-01T05:14:58;99077.19;;;19.86;100.00
19576;BME280;41589;51.196;7.074;2022-08-01T05:20:08;99081.50;;;19.99;100.00
19576;BME280;41589;51.196;7.074;2022-08-01T05:25:09;99070.34;;;20.01;100.00
19576;BME280;41589;51.196;7.074;2022-08-01T05:30:09;99082.81;;;20.03;100.00
19576;BME280;41589;51.196;7.074;2022-08-01T05:35:13;99092.16;;;20.04;100.00
19576;BME280;41589;51.196;7.074;2022-08-01T05:40:16;99090.34;;;20.06;100.00
19576;BME280;41589;51.196;7.074;2022-08-01T05:51:29;99106.97;;;19.97;100.00
19576;BME280;41589;51.196;7.074;2022-08-01T05:56:30;99102.13;;;19.86;100.00
19576;BME280;41589;51.196;7.074;2022-08-01T06:01:31;99104.63;;;20.06;100.00
19576;BME280;41589;51.196;7.074;2022-08-01T06:06:34;99095.44;;;20.19;100.00
19576;BME280;41589;51.196;7.074;2022-08-01T06:11:37;99109.06;;;20.37;100.00
19576;BME280;41589;51.196;7.074;2022-08-01T06:16:40;99105.81;;;20.58;100.00
19576;BME280;41589;51.196;7.074;2022-08-01T06:21:41;99108.66;;;20.58;100.00
19576;BME280;41589;51.196;7.074;2022-08-01T06:26:41;99104.59;;;20.47;100.00
19576;BME280;41589;51.196;7.074;2022-08-01T06:31:42;99096.31;;;20.44;100.00
19576;BME280;41589;51.196;7.074;2022-08-01T06:36:46;99092.56;;;20.25;100.00
19576;BME280;41589;51.196;7.074;2022-08-01T06:41:49;99099.69;;;20.42;100.00
19576;BME280;41589;51.196;7.074;2022-08-01T06:46:56;99108.06;;;20.35;100.00
19576;BME280;41589;51.196;7.074;2022-08-01T06:52:04;99101.97;;;20.50;100.00
19576;BME280;41589;51.196;7.074;2022-08-01T06:57:08;99098.53;;;20.57;99.97
19576;BME280;41589;51.196;7.074;2022-08-01T07:02:08;99096.09;;;20.66;99.91
19576;BME280;41589;51.196;7.074;2022-08-01T07:07:08;99107.84;;;20.63;98.91
19576;BME280;41589;51.196;7.074;2022-08-01T07:12:09;99105.84;;;20.82;99.78
19576;BME280;41589;51.196;7.074;2022-08-01T07:17:09;99102.72;;;21.10;99.43
19576;BME280;41589;51.196;7.074;2022-08-01T07:22:10;99100.88;;;21.13;96.74
19576;BME280;41589;51.196;7.074;2022-08-01T07:27:10;99107.38;;;21.13;97.71
19576;BME280;41589;51.196;7.074;2022-08-01T07:32:11;99106.06;;;21.39;97.52
19576;BME280;41589;51.196;7.074;2022-08-01T07:37:14;99105.28;;;21.38;97.06
19576;BME280;41589;51.196;7.074;2022-08-01T07:42:15;99121.69;;;21.62;96.17
19576;BME280;41589;51.196;7.074;2022-08-01T07:47:16;99124.88;;;21.53;94.58
19576;BME280;41589;51.196;7.074;2022-08-01T07:52:17;99126.69;;;21.56;94.07
19576;BME280;41589;51.196;7.074;2022-08-01T07:57:17;99136.31;;;21.58;94.01
19576;BME280;41589;51.196;7.074;2022-08-01T08:02:18;99139.59;;;21.68;94.00
19576;BME280;41589;51.196;7.074;2022-08-01T08:07:18;99131.94;;;21.76;93.01
19576;BME280;41589;51.196;7.074;2022-08-01T08:12:19;99136.09;;;21.75;92.24
19576;BME280;41589;51.196;7.074;2022-08-01T08:17:20;99138.69;;;21.98;92.29
19576;BME280;41589;51.196;7.074;2022-08-01T08:22:23;99139.28;;;22.09;91.67
19576;BME280;41589;51.196;7.074;2022-08-01T08:27:24;99150.22;;;21.92;90.98
19576;BME280;41589;51.196;7.074;2022-08-01T08:32:24;99150.91;;;21.98;90.83
19576;BME280;41589;51.196;7.074;2022-08-01T08:37:28;99143.47;;;22.08;90.30
19576;BME280;41589;51.196;7.074;2022-08-01T08:42:28;99146.56;;;22.48;89.31
19576;BME280;41589;51.196;7.074;2022-08-01T08:47:31;99149.91;;;22.52;88.42
19576;BME280;41589;51.196;7.074;2022-08-01T08:52:35;99166.81;;;22.69;85.83
19576;BME280;41589;51.196;7.074;2022-08-01T08:57:39;99159.00;;;22.69;85.31
19576;BME280;41589;51.196;7.074;2022-08-01T09:02:44;99156.47;;;22.79;85.26
19576;BME280;41589;51.196;7.074;2022-08-01T09:07:45;99156.94;;;23.02;85.26
19576;BME280;41589;51.196;7.074;2022-08-01T09:13:08;99166.31;;;23.16;86.32
19576;BME280;41589;51.196;7.074;2022-08-01T09:18:37;99167.13;;;23.43;87.77
19576;BME280;41589;51.196;7.074;2022-08-01T09:23:46;99166.47;;;23.63;84.24
19576;BME280;41589;51.196;7.074;2022-08-01T09:28:47;99175.03;;;24.29;81.62
19576;BME280;41589;51.196;7.074;2022-08-01T09:33:55;99178.50;;;24.01;80.29
19576;BME280;41589;51.196;7.074;2022-08-01T09:38:56;99172.97;;;24.03;79.40
19576;BME280;41589;51.196;7.074;2022-08-01T09:44:11;99177.47;;;24.38;77.68
19576;BME280;41589;51.196;7.074;2022-08-01T09:49:12;99171.00;;;24.80;77.16
19576;BME280;41589;51.196;7.074;2022-08-01T09:54:28;99177.63;;;24.74;77.99
19576;BME280;41589;51.196;7.074;2022-08-01T09:59:36;99184.84;;;24.34;75.06
19576;BME280;41589;51.196;7.074;2022-08-01T10:04:48;99177.59;;;24.19;77.81
19576;BME280;41589;51.196;7.074;2022-08-01T10:09:49;99180.78;;;24.63;75.23
19576;BME280;41589;51.196;7.074;2022-08-01T10:14:50;99177.06;;;25.10;75.93
19576;BME280;41589;51.196;7.074;2022-08-01T10:19:52;99181.22;;;25.30;74.05
19576;BME280;41589;51.196;7.074;2022-08-01T10:24:55;99169.25;;;25.47;72.29
19576;BME280;41589;51.196;7.074;2022-08-01T10:29:59;99168.16;;;25.29;72.96
19576;BME280;41589;51.196;7.074;2022-08-01T10:35:08;99175.06;;;25.26;70.15
19576;BME280;41589;51.196;7.074;2022-08-01T10:40:14;99180.28;;;25.07;71.17
19576;BME280;41589;51.196;7.074;2022-08-01T10:45:15;99175.16;;;25.13;71.82
19576;BME280;41589;51.196;7.074;2022-08-01T11:01:20;99166.91;;;24.96;72.08
19576;BME280;41589;51.196;7.074;2022-08-01T11:06:36;99177.03;;;24.89;73.34
19576;BME280;41589;51.196;7.074;2022-08-01T11:33:18;99155.25;;;25.22;65.99
19576;BME280;41589;51.196;7.074;2022-08-01T11:38:24;99169.09;;;24.82;65.66
19576;BME280;41589;51.196;7.074;2022-08-01T11:43:28;99157.41;;;24.88;66.11
19576;BME280;41589;51.196;7.074;2022-08-01T11:48:28;99148.09;;;25.16;68.02
19576;BME280;41589;51.196;7.074;2022-08-01T11:53:29;99150.38;;;25.38;66.35
19576;BME280;41589;51.196;7.074;2022-08-01T11:58:29;99149.66;;;25.45;66.16
19576;BME280;41589;51.196;7.074;2022-08-01T12:03:31;99150.97;;;25.16;64.70
19576;BME280;41589;51.196;7.074;2022-08-01T12:08:33;99146.88;;;25.32;63.52
19576;BME280;41589;51.196;7.074;2022-08-01T12:13:42;99140.50;;;25.26;65.88
19576;BME280;41589;51.196;7.074;2022-08-01T12:18:43;99143.06;;;25.37;63.34
19576;BME280;41589;51.196;7.074;2022-08-01T12:23:44;99145.78;;;25.71;62.28
19576;BME280;41589;51.196;7.074;2022-08-01T12:28:44;99153.53;;;25.76;63.15
19576;BME280;41589;51.196;7.074;2022-08-01T12:33:44;99154.34;;;25.92;60.71
19576;BME280;41589;51.196;7.074;2022-08-01T12:38:52;99160.50;;;25.60;63.55
19576;BME280;41589;51.196;7.074;2022-08-01T12:43:52;99159.78;;;25.39;62.61
19576;BME280;41589;51.196;7.074;2022-08-01T12:48:53;99155.91;;;25.08;62.11
19576;BME280;41589;51.196;7.074;2022-08-01T12:53:53;99154.44;;;25.43;64.63
19576;BME280;41589;51.196;7.074;2022-08-01T12:58:54;99145.63;;;25.48;63.13
19576;BME280;41589;51.196;7.074;2022-08-01T13:04:02;99155.41;;;25.45;64.09
19576;BME280;41589;51.196;7.074;2022-08-01T13:09:08;99160.88;;;25.56;65.10
19576;BME280;41589;51.196;7.074;2022-08-01T13:14:10;99154.88;;;25.75;64.94
19576;BME280;41589;51.196;7.074;2022-08-01T13:19:11;99160.19;;;25.71;63.45
19576;BME280;41589;51.196;7.074;2022-08-01T13:24:12;99162.16;;;25.76;62.17
19576;BME280;41589;51.196;7.074;2022-08-01T13:29:15;99163.25;;;26.02;62.71
19576;BME280;41589;51.196;7.074;2022-08-01T13:34:16;99158.44;;;25.97;63.82
19576;BME280;41589;51.196;7.074;2022-08-01T13:39:16;99163.09;;;25.71;63.65
19576;BME280;41589;51.196;7.074;2022-08-01T13:44:35;99166.34;;;25.68;63.96
19576;BME280;41589;51.196;7.074;2022-08-01T13:49:36;99161.75;;;25.44;62.55
19576;BME280;41589;51.196;7.074;2022-08-01T13:54:37;99161.84;;;25.30;62.66
19576;BME280;41589;51.196;7.074;2022-08-01T13:59:37;99158.44;;;25.40;63.01
19576;BME280;41589;51.196;7.074;2022-08-01T14:04:38;99165.13;;;25.35;62.64
19576;BME280;41589;51.196;7.074;2022-08-01T14:09:38;99163.84;;;25.43;62.23
19576;BME280;41589;51.196;7.074;2022-08-01T14:14:39;99157.19;;;25.27;61.52
19576;BME280;41589;51.196;7.074;2022-08-01T14:19:39;99168.25;;;25.16;61.62
19576;BME280;41589;51.196;7.074;2022-08-01T14:24:40;99173.34;;;25.02;61.45
19576;BME280;41589;51.196;7.074;2022-08-01T14:29:40;99164.47;;;25.00;62.70
19576;BME280;41589;51.196;7.074;2022-08-01T14:34:41;99166.72;;;25.15;64.37
19576;BME280;41589;51.196;7.074;2022-08-01T14:39:41;99157.56;;;25.24;62.43
19576;BME280;41589;51.196;7.074;2022-08-01T14:44:42;99168.47;;;25.18;63.03
19576;BME280;41589;51.196;7.074;2022-08-01T14:49:42;99156.50;;;25.35;63.48
19576;BME280;41589;51.196;7.074;2022-08-01T14:54:42;99157.78;;;25.54;63.38
19576;BME280;41589;51.196;7.074;2022-08-01T14:59:43;99154.84;;;25.47;62.71
19576;BME280;41589;51.196;7.074;2022-08-01T15:04:45;99159.59;;;24.95;62.30
19576;BME280;41589;51.196;7.074;2022-08-01T15:09:46;99171.00;;;25.00;63.04
19576;BME280;41589;51.196;7.074;2022-08-01T15:14:46;99167.78;;;25.04;64.05
19576;BME280;41589;51.196;7.074;2022-08-01T15:19:52;99171.31;;;24.97;62.31
19576;BME280;41589;51.196;7.074;2022-08-01T15:24:54;99175.66;;;25.03;64.32
19576;BME280;41589;51.196;7.074;2022-08-01T15:29:55;99171.19;;;25.23;63.47
19576;BME280;41589;51.196;7.074;2022-08-01T15:34:56;99178.00;;;24.71;62.17
19576;BME280;41589;51.196;7.074;2022-08-01T15:39:56;99169.38;;;24.92;64.51
19576;BME280;41589;51.196;7.074;2022-08-01T15:44:57;99183.81;;;24.58;64.03
19576;BME280;41589;51.196;7.074;2022-08-01T15:49:57;99185.72;;;24.76;65.89
19576;BME280;41589;51.196;7.074;2022-08-01T15:55:01;99182.78;;;24.68;63.40
19576;BME280;41589;51.196;7.074;2022-08-01T16:00:03;99190.63;;;24.68;64.57
19576;BME280;41589;51.196;7.074;2022-08-01T16:05:12;99193.44;;;24.60;63.83
19576;BME280;41589;51.196;7.074;2022-08-01T16:10:12;99195.56;;;24.46;64.99
19576;BME280;41589;51.196;7.074;2022-08-01T16:15:13;99194.16;;;24.40;64.60
19576;BME280;41589;51.196;7.074;2022-08-01T16:20:13;99198.94;;;24.11;64.36
19576;BME280;41589;51.196;7.074;2022-08-01T16:25:14;99195.66;;;24.07;64.14
19576;BME280;41589;51.196;7.074;2022-08-01T16:30:15;99195.41;;;24.05;65.10
19576;BME280;41589;51.196;7.074;2022-08-01T16:35:16;99198.44;;;23.86;64.61
19576;BME280;41589;51.196;7.074;2022-08-01T16:40:16;99189.34;;;23.69;65.06
19576;BME280;41589;51.196;7.074;2022-08-01T16:45:17;99186.16;;;23.72;65.20
19576;BME280;41589;51.196;7.074;2022-08-01T16:50:20;99191.69;;;23.97;67.20
19576;BME280;41589;51.196;7.074;2022-08-01T16:55:20;99192.44;;;24.10;67.05
19576;BME280;41589;51.196;7.074;2022-08-01T17:00:22;99193.06;;;24.30;66.82
19576;BME280;41589;51.196;7.074;2022-08-01T17:05:25;99190.81;;;24.36;66.25
19576;BME280;41589;51.196;7.074;2022-08-01T17:10:27;99200.69;;;24.40;65.03
19576;BME280;41589;51.196;7.074;2022-08-01T17:15:28;99193.69;;;24.36;64.97
19576;BME280;41589;51.196;7.074;2022-08-01T17:20:29;99204.13;;;24.39;64.96
19576;BME280;41589;51.196;7.074;2022-08-01T17:25:30;99204.09;;;24.26;64.91
19576;BME280;41589;51.196;7.074;2022-08-01T17:30:30;99201.78;;;24.24;64.10
19576;BME280;41589;51.196;7.074;2022-08-01T17:35:31;99205.88;;;24.29;65.34
19576;BME280;41589;51.196;7.074;2022-08-01T17:40:31;99206.91;;;24.18;63.53
19576;BME280;41589;51.196;7.074;2022-08-01T17:45:32;99199.84;;;24.06;64.62
19576;BME280;41589;51.196;7.074;2022-08-01T17:50:32;99198.94;;;24.11;65.17
19576;BME280;41589;51.196;7.074;2022-08-01T17:55:33;99197.63;;;24.12;65.06
19576;BME280;41589;51.196;7.074;2022-08-01T18:00:34;99202.94;;;23.95;64.63
19576;BME280;41589;51.196;7.074;2022-08-01T18:05:37;99207.94;;;23.81;64.05
19576;BME280;41589;51.196;7.074;2022-08-01T18:10:38;99205.16;;;23.88;63.80
19576;BME280;41589;51.196;7.074;2022-08-01T18:15:38;99197.97;;;24.08;65.32
19576;BME280;41589;51.196;7.074;2022-08-01T18:20:39;99210.88;;;24.28;65.87
19576;BME280;41589;51.196;7.074;2022-08-01T18:25:39;99208.19;;;24.43;64.47
19576;BME280;41589;51.196;7.074;2022-08-01T18:30:40;99214.75;;;24.65;62.71
19576;BME280;41589;51.196;7.074;2022-08-01T18:35:40;99226.13;;;24.23;63.27
19576;BME280;41589;51.196;7.074;2022-08-01T18:40:41;99221.63;;;24.01;64.38
19576;BME280;41589;51.196;7.074;2022-08-01T18:45:42;99222.63;;;23.77;64.15
19576;BME280;41589;51.196;7.074;2022-08-01T18:50:43;99232.34;;;24.01;64.10
19576;BME280;41589;51.196;7.074;2022-08-01T18:55:43;99238.44;;;23.71;64.39
19576;BME280;41589;51.196;7.074;2022-08-01T19:00:43;99242.88;;;23.26;63.25
19576;BME280;41589;51.196;7.074;2022-08-01T19:05:44;99250.13;;;23.14;64.75
19576;BME280;41589;51.196;7.074;2022-08-01T19:10:45;99249.69;;;22.91;65.18
19576;BME280;41589;51.196;7.074;2022-08-01T19:15:46;99256.59;;;22.83;65.57
19576;BME280;41589;51.196;7.074;2022-08-01T19:20:46;99266.94;;;22.72;66.62
19576;BME280;41589;51.196;7.074;2022-08-01T19:25:47;99267.72;;;22.54;66.77
19576;BME280;41589;51.196;7.074;2022-08-01T19:30:49;99267.16;;;22.37;66.32
19576;BME280;41589;51.196;7.074;2022-08-01T19:35:51;99274.88;;;22.23;66.37
19576;BME280;41589;51.196;7.074;2022-08-01T19:40:53;99284.84;;;22.16;67.74
19576;BME280;41589;51.196;7.074;2022-08-01T19:45:53;99289.34;;;22.12;68.28
19576;BME280;41589;51.196;7.074;2022-08-01T19:50:54;99293.13;;;22.01;68.80
19576;BME280;41589;51.196;7.074;2022-08-01T19:55:58;99289.38;;;21.87;69.81
19576;BME280;41589;51.196;7.074;2022-08-01T20:01:00;99298.59;;;21.75;69.98
19576;BME280;41589;51.196;7.074;2022-08-01T20:06:01;99291.44;;;21.63;69.75
19576;BME280;41589;51.196;7.074;2022-08-01T20:11:04;99295.94;;;21.52;70.31
19576;BME280;41589;51.196;7.074;2022-08-01T20:16:06;99299.09;;;21.49;70.81
19576;BME280;41589;51.196;7.074;2022-08-01T20:21:09;99308.25;;;21.42;71.39
19576;BME280;41589;51.196;7.074;2022-08-01T20:26:13;99303.69;;;21.27;71.29
19576;BME280;41589;51.196;7.074;2022-08-01T20:31:15;99305.03;;;21.21;71.30
19576;BME280;41589;51.196;7.074;2022-08-01T20:36:15;99309.78;;;21.13;72.06
19576;BME280;41589;51.196;7.074;2022-08-01T20:41:17;99323.38;;;21.07;72.63
19576;BME280;41589;51.196;7.074;2022-08-01T20:46:17;99320.06;;;20.97;72.55
19576;BME280;41589;51.196;7.074;2022-08-01T20:51:22;99313.13;;;20.75;72.62
19576;BME280;41589;51.196;7.074;2022-08-01T21:01:46;99311.50;;;20.39;74.00
19576;BME280;41589;51.196;7.074;2022-08-01T21:07:05;99301.47;;;20.21;74.19
19576;BME280;41589;51.196;7.074;2022-08-01T21:12:25;99306.13;;;20.18;73.48
19576;BME280;41589;51.196;7.074;2022-08-01T21:17:45;99309.22;;;20.26;74.16
19576;BME280;41589;51.196;7.074;2022-08-01T21:28:00;99311.59;;;20.22;73.34
19576;BME280;41589;51.196;7.074;2022-08-01T21:33:03;99317.00;;;20.31;74.41
19576;BME280;41589;51.196;7.074;2022-08-01T21:38:04;99298.31;;;20.30;73.72
19576;BME280;41589;51.196;7.074;2022-08-01T21:43:05;99297.00;;;20.31;73.80
19576;BME280;41589;51.196;7.074;2022-08-01T21:48:07;99296.75;;;20.24;73.62
19576;BME280;41589;51.196;7.074;2022-08-01T21:53:25;99302.44;;;20.35;76.70
19576;BME280;41589;51.196;7.074;2022-08-01T21:59:31;99303.44;;;20.43;77.13
19576;BME280;41589;51.196;7.074;2022-08-01T22:04:13;99307.09;;;20.38;75.11
19576;BME280;41589;51.196;7.074;2022-08-01T22:09:17;99313.34;;;20.36;74.89
19576;BME280;41589;51.196;7.074;2022-08-01T22:14:20;99315.16;;;20.34;75.16
19576;BME280;41589;51.196;7.074;2022-08-01T22:19:22;99309.25;;;20.21;74.15
19576;BME280;41589;51.196;7.074;2022-08-01T22:24:23;99315.75;;;19.99;74.73
19576;BME280;41589;51.196;7.074;2022-08-01T22:29:27;99324.38;;;19.93;75.20
19576;BME280;41589;51.196;7.074;2022-08-01T22:34:27;99329.03;;;20.07;75.40
19576;BME280;41589;51.196;7.074;2022-08-01T22:39:28;99316.56;;;20.10;75.79
19576;BME280;41589;51.196;7.074;2022-08-01T22:44:34;99316.78;;;20.18;76.89
19576;BME280;41589;51.196;7.074;2022-08-01T22:49:47;99317.34;;;20.11;75.83
19576;BME280;41589;51.196;7.074;2022-08-01T22:54:59;99309.03;;;20.02;75.87
19576;BME280;41589;51.196;7.074;2022-08-01T23:00:06;99313.72;;;19.94;76.48
19576;BME280;41589;51.196;7.074;2022-08-01T23:05:11;99296.56;;;19.94;76.34
19576;BME280;41589;51.196;7.074;2022-08-01T23:10:13;99301.00;;;19.83;75.35
19576;BME280;41589;51.196;7.074;2022-08-01T23:15:14;99302.03;;;19.86;75.20
19576;BME280;41589;51.196;7.074;2022-08-01T23:20:16;99302.81;;;19.92;74.93
19576;BME280;41589;51.196;7.074;2022-08-01T23:25:17;99310.31;;;20.01;75.53
19576;BME280;41589;51.196;7.074;2022-08-01T23:30:18;99305.63;;;20.03;75.15
19576;BME280;41589;51.196;7.074;2022-08-01T23:35:18;99305.91;;;20.00;75.11
19576;BME280;41589;51.196;7.074;2022-08-01T23:40:19;99306.16;;;19.96;75.30
19576;BME280;41589;51.196;7.074;2022-08-01T23:45:20;99294.78;;;19.90;75.49
19576;BME280;41589;51.196;7.074;2022-08-01T23:50:21;99302.31;;;19.82;75.15
19576;BME280;41589;51.196;7.074;2022-08-01T23:55:22;99303.38;;;19.79;75.76
